sensor_id;sensor_type;location;lat;lon;timestamp;temperature;humidity
18868;DHT22;9563;49.240;9.088;2023-08-12T04:02:35;19.30;99.90
18868;DHT22;9563;49.240;9.088;2023-08-12T04:05:02;19.20;99.90
18868;DHT22;9563;49.240;9.088;2023-08-12T04:07:29;19.20;99.90
18868;DHT22;9563;49.240;9.088;2023-08-12T04:09:56;19.20;99.90
18868;DHT22;9563;49.240;9.088;2023-08-12T04:12:22;19.20;99.90
18868;DHT22;9563;49.240;9.088;2023-08-12T04:14:49;19.20;99.90
18868;DHT22;9563;49.240;9.088;2023-08-12T04:17:16;19.20;99.90
18868;DHT22;9563;49.240;9.088;2023-08-12T04:19:44;19.20;99.90
18868;DHT22;9563;49.240;9.088;2023-08-12T04:22:11;19.20;99.90
18868;DHT22;9563;49.240;9.088;2023-08-12T04:24:38;19.10;99.90
18868;DHT22;9563;49.240;9.088;2023-08-12T04:27:04;19.10;99.90
18868;DHT22;9563;49.240;9.088;2023-08-12T04:29:31;19.10;99.90
18868;DHT22;9563;49.240;9.088;2023-08-12T04:31:58;19.20;99.90
18868;DHT22;9563;49.240;9.088;2023-08-12T04:34:25;19.10;99.90
18868;DHT22;9563;49.240;9.088;2023-08-12T04:36:53;19.20;99.90
18868;DHT22;9563;49.240;9.088;2023-08-12T04:39:19;19.20;99.90
18868;DHT22;9563;49.240;9.088;2023-08-12T04:41:47;19.20;99.90
18868;DHT22;9563;49.240;9.088;2023-08-12T04:44:14;19.20;99.90
18868;DHT22;9563;49.240;9.088;2023-08-12T04:46:41;19.30;99.90
18868;DHT22;9563;49.240;9.088;2023-08-12T04:49:07;19.30;99.90
18868;DHT22;9563;49.240;9.088;2023-08-12T04:51:34;19.30;99.90
18868;DHT22;9563;49.240;9.088;2023-08-12T04:54:03;19.40;99.90
18868;DHT22;9563;49.240;9.088;2023-08-12T04:56:29;19.40;99.90
18868;DHT22;9563;49.240;9.088;2023-08-12T04:58:55;19.40;99.90
18868;DHT22;9563;49.240;9.088;2023-08-12T05:01:22;19.40;99.90
18868;DHT22;9563;49.240;9.088;2023-08-12T05:03:49;19.40;99.90
18868;DHT22;9563;49.240;9.088;2023-08-12T05:06:16;19.40;99.90
18868;DHT22;9563;49.240;9.088;2023-08-12T05:08:43;19.40;99.90
18868;DHT22;9563;49.240;9.088;2023-08-12T05:11:11;19.50;99.90
18868;DHT22;9563;49.240;9.088;2023-08-12T05:13:37;19.50;99.90
18868;DHT22;9563;49.240;9.088;2023-08-12T05:16:04;19.50;99.90
18868;DHT22;9563;49.240;9.088;2023-08-12T05:18:31;19.50;99.90
18868;DHT22;9563;49.240;9.088;2023-08-12T05:20:58;19.50;99.90
18868;DHT22;9563;49.240;9.088;2023-08-12T05:23:24;19.60;99.90
18868;DHT22;9563;49.240;9.088;2023-08-12T05:25:52;19.60;99.90
18868;DHT22;9563;49.240;9.088;2023-08-12T05:28:20;19.60;99.90
18868;DHT22;9563;49.240;9.088;2023-08-12T05:30:46;19.70;99.90
18868;DHT22;9563;49.240;9.088;2023-08-12T05:33:13;19.70;99.90
18868;DHT22;9563;49.240;9.088;2023-08-12T05:35:40;19.70;99.90
18868;DHT22;9563;49.240;9.088;2023-08-12T05:38:07;19.70;99.90
18868;DHT22;9563;49.240;9.088;2023-08-12T05:40:34;19.70;99.90
18868;DHT22;9563;49.240;9.088;2023-08-12T05:43:00;19.70;99.90
18868;DHT22;9563;49.240;9.088;2023-08-12T05:45:29;19.70;99.90
18868;DHT22;9563;49.240;9.088;2023-08-12T05:47:56;19.70;99.90
18868;DHT22;9563;49.240;9.088;2023-08-12T05:50:23;19.80;99.90
18868;DHT22;9563;49.240;9.088;2023-08-12T05:52:49;19.90;99.90
18868;DHT22;9563;49.240;9.088;2023-08-12T05:55:16;19.90;99.90
18868;DHT22;9563;49.240;9.088;2023-08-12T05:57:43;20.00;99.90
18868;DHT22;9563;49.240;9.088;2023-08-12T06:00:11;20.10;99.90
18868;DHT22;9563;49.240;9.088;2023-08-12T06:02:39;20.10;99.90
18868;DHT22;9563;49.240;9.088;2023-08-12T06:05:07;20.10;99.90
18868;DHT22;9563;49.240;9.088;2023-08-12T06:07:34;20.20;99.90
18868;DHT22;9563;49.240;9.088;2023-08-12T06:10:01;20.20;99.90
18868;DHT22;9563;49.240;9.088;2023-08-12T06:12:28;20.30;99.90
18868;DHT22;9563;49.240;9.088;2023-08-12T06:14:55;20.20;99.90
18868;DHT22;9563;49.240;9.088;2023-08-12T06:17:22;20.20;99.90
18868;DHT22;9563;49.240;9.088;2023-08-12T06:19:50;20.20;99.90
18868;DHT22;9563;49.240;9.088;2023-08-12T06:22:17;20.20;99.90
18868;DHT22;9563;49.240;9.088;2023-08-12T06:24:44;20.20;99.90
18868;DHT22;9563;49.240;9.088;2023-08-12T06:27:11;20.20;99.90
18868;DHT22;9563;49.240;9.088;2023-08-12T06:29:37;20.20;99.90
18868;DHT22;9563;49.240;9.088;2023-08-12T06:32:05;20.30;99.90
18868;DHT22;9563;49.240;9.088;2023-08-12T06:34:32;20.30;99.90
18868;DHT22;9563;49.240;9.088;2023-08-12T06:37:00;20.40;99.90
18868;DHT22;9563;49.240;9.088;2023-08-12T06:39:26;20.40;99.90
18868;DHT22;9563;49.240;9.088;2023-08-12T06:41:53;20.50;99.90
18868;DHT22;9563;49.240;9.088;2023-08-12T06:44:21;20.50;99.90
18868;DHT22;9563;49.240;9.088;2023-08-12T06:46:48;20.50;99.90
18868;DHT22;9563;49.240;9.088;2023-08-12T06:49:15;20.60;99.90
18868;DHT22;9563;49.240;9.088;2023-08-12T06:51:42;20.60;99.90
18868;DHT22;9563;49.240;9.088;2023-08-12T06:54:10;20.70;99.90
18868;DHT22;9563;49.240;9.088;2023-08-12T06:56:37;20.80;99.90
18868;DHT22;9563;49.240;9.088;2023-08-12T06:59:04;20.90;99.90
18868;DHT22;9563;49.240;9.088;2023-08-12T07:01:31;21.10;99.90
18868;DHT22;9563;49.240;9.088;2023-08-12T07:03:57;21.20;99.90
18868;DHT22;9563;49.240;9.088;2023-08-12T07:06:24;21.30;99.90
18868;DHT22;9563;49.240;9.088;2023-08-12T07:08:51;21.50;99.90
18868;DHT22;9563;49.240;9.088;2023-08-12T07:11:19;21.70;99.90
18868;DHT22;9563;49.240;9.088;2023-08-12T07:13:46;21.90;99.90
18868;DHT22;9563;49.240;9.088;2023-08-12T07:16:13;22.20;99.90
18868;DHT22;9563;49.240;9.088;2023-08-12T07:18:40;22.50;99.90
18868;DHT22;9563;49.240;9.088;2023-08-12T07:21:07;22.80;99.90
18868;DHT22;9563;49.240;9.088;2023-08-12T07:23:33;23.00;99.90
18868;DHT22;9563;49.240;9.088;2023-08-12T07:26:00;23.00;99.90
18868;DHT22;9563;49.240;9.088;2023-08-12T07:28:28;23.00;99.90
18868;DHT22;9563;49.240;9.088;2023-08-12T07:30:55;22.90;99.90
18868;DHT22;9563;49.240;9.088;2023-08-12T07:33:22;22.90;99.90
18868;DHT22;9563;49.240;9.088;2023-08-12T07:35:50;22.90;99.90
18868;DHT22;9563;49.240;9.088;2023-08-12T07:38:16;22.80;99.90
18868;DHT22;9563;49.240;9.088;2023-08-12T07:40:43;22.80;99.90
18868;DHT22;9563;49.240;9.088;2023-08-12T07:43:10;22.80;99.90
18868;DHT22;9563;49.240;9.088;2023-08-12T07:45:38;22.80;99.90
18868;DHT22;9563;49.240;9.088;2023-08-12T07:48:05;22.80;99.90
18868;DHT22;9563;49.240;9.088;2023-08-12T07:50:32;22.90;99.90
18868;DHT22;9563;49.240;9.088;2023-08-12T07:52:59;23.00;99.90
18868;DHT22;9563;49.240;9.088;2023-08-12T07:55:27;23.20;99.90
18868;DHT22;9563;49.240;9.088;2023-08-12T07:57:55;23.40;99.90
18868;DHT22;9563;49.240;9.088;2023-08-12T08:00:22;23.70;99.90
18868;DHT22;9563;49.240;9.088;2023-08-12T08:02:50;23.70;99.90
18868;DHT22;9563;49.240;9.088;2023-08-12T08:05:17;23.80;99.90
18868;DHT22;9563;49.240;9.088;2023-08-12T08:07:43;24.20;99.90
18868;DHT22;9563;49.240;9.088;2023-08-12T08:10:10;24.50;99.90
18868;DHT22;9563;49.240;9.088;2023-08-12T08:12:38;24.80;99.90
18868;DHT22;9563;49.240;9.088;2023-08-12T08:15:05;25.30;99.90
18868;DHT22;9563;49.240;9.088;2023-08-12T08:17:32;25.50;99.90
18868;DHT22;9563;49.240;9.088;2023-08-12T08:20:01;25.90;99.90
18868;DHT22;9563;49.240;9.088;2023-08-12T08:22:28;26.10;99.90
18868;DHT22;9563;49.240;9.088;2023-08-12T08:24:55;26.10;99.90
18868;DHT22;9563;49.240;9.088;2023-08-12T08:27:22;26.10;99.90
18868;DHT22;9563;49.240;9.088;2023-08-12T08:29:49;26.10;99.90
18868;DHT22;9563;49.240;9.088;2023-08-12T08:32:16;25.80;99.90
18868;DHT22;9563;49.240;9.088;2023-08-12T08:34:43;25.60;99.90
18868;DHT22;9563;49.240;9.088;2023-08-12T08:37:11;25.50;99.90
18868;DHT22;9563;49.240;9.088;2023-08-12T08:39:38;25.40;99.90
18868;DHT22;9563;49.240;9.088;2023-08-12T08:42:05;25.30;99.90
18868;DHT22;9563;49.240;9.088;2023-08-12T08:44:33;25.30;99.90
18868;DHT22;9563;49.240;9.088;2023-08-12T08:47:01;25.50;99.90
18868;DHT22;9563;49.240;9.088;2023-08-12T08:49:30;25.80;99.90
18868;DHT22;9563;49.240;9.088;2023-08-12T08:51:58;25.90;99.90
18868;DHT22;9563;49.240;9.088;2023-08-12T08:54:27;25.90;99.90
18868;DHT22;9563;49.240;9.088;2023-08-12T08:56:54;25.80;99.90
18868;DHT22;9563;49.240;9.088;2023-08-12T08:59:21;25.80;99.90
18868;DHT22;9563;49.240;9.088;2023-08-12T09:01:49;26.10;99.90
18868;DHT22;9563;49.240;9.088;2023-08-12T09:04:18;26.40;99.90
18868;DHT22;9563;49.240;9.088;2023-08-12T09:06:47;26.50;99.90
18868;DHT22;9563;49.240;9.088;2023-08-12T09:09:16;26.50;99.90
18868;DHT22;9563;49.240;9.088;2023-08-12T09:11:47;26.60;99.90
18868;DHT22;9563;49.240;9.088;2023-08-12T09:14:15;26.70;99.90
18868;DHT22;9563;49.240;9.088;2023-08-12T09:16:41;26.90;99.90
18868;DHT22;9563;49.240;9.088;2023-08-12T09:19:08;27.20;99.90
18868;DHT22;9563;49.240;9.088;2023-08-12T09:21:35;27.60;99.90
18868;DHT22;9563;49.240;9.088;2023-08-12T09:24:03;27.60;99.90
18868;DHT22;9563;49.240;9.088;2023-08-12T09:26:30;27.60;99.90
18868;DHT22;9563;49.240;9.088;2023-08-12T09:28:59;27.40;99.90
18868;DHT22;9563;49.240;9.088;2023-08-12T09:31:27;27.10;99.90
18868;DHT22;9563;49.240;9.088;2023-08-12T09:33:58;26.90;99.90
18868;DHT22;9563;49.240;9.088;2023-08-12T09:36:28;26.90;99.90
18868;DHT22;9563;49.240;9.088;2023-08-12T09:38:56;27.10;99.90
18868;DHT22;9563;49.240;9.088;2023-08-12T09:41:24;27.50;99.90
18868;DHT22;9563;49.240;9.088;2023-08-12T09:43:51;27.80;99.90
18868;DHT22;9563;49.240;9.088;2023-08-12T09:46:21;28.00;99.90
18868;DHT22;9563;49.240;9.088;2023-08-12T09:48:49;28.20;99.90
18868;DHT22;9563;49.240;9.088;2023-08-12T09:51:17;28.30;99.90
18868;DHT22;9563;49.240;9.088;2023-08-12T09:53:44;28.00;99.90
18868;DHT22;9563;49.240;9.088;2023-08-12T09:56:12;28.40;99.90
18868;DHT22;9563;49.240;9.088;2023-08-12T09:58:39;28.50;99.90
18868;DHT22;9563;49.240;9.088;2023-08-12T10:01:10;28.70;99.90
18868;DHT22;9563;49.240;9.088;2023-08-12T10:03:40;28.60;99.90
18868;DHT22;9563;49.240;9.088;2023-08-12T10:06:07;28.40;99.90
18868;DHT22;9563;49.240;9.088;2023-08-12T10:08:35;28.50;99.90
18868;DHT22;9563;49.240;9.088;2023-08-12T10:11:02;28.40;99.90
18868;DHT22;9563;49.240;9.088;2023-08-12T10:13:29;28.70;99.90
18868;DHT22;9563;49.240;9.088;2023-08-12T10:15:56;28.90;99.90
18868;DHT22;9563;49.240;9.088;2023-08-12T10:18:24;29.20;99.90
18868;DHT22;9563;49.240;9.088;2023-08-12T10:20:54;29.20;99.90
18868;DHT22;9563;49.240;9.088;2023-08-12T10:23:24;29.10;99.90
18868;DHT22;9563;49.240;9.088;2023-08-12T10:25:53;29.00;99.90
18868;DHT22;9563;49.240;9.088;2023-08-12T10:28:21;29.20;99.90
18868;DHT22;9563;49.240;9.088;2023-08-12T10:30:48;29.30;99.90
18868;DHT22;9563;49.240;9.088;2023-08-12T10:33:16;29.50;99.90
18868;DHT22;9563;49.240;9.088;2023-08-12T10:35:45;29.60;99.90
18868;DHT22;9563;49.240;9.088;2023-08-12T10:38:17;29.60;99.90
18868;DHT22;9563;49.240;9.088;2023-08-12T10:40:44;30.00;99.90
18868;DHT22;9563;49.240;9.088;2023-08-12T10:43:11;30.00;99.90
18868;DHT22;9563;49.240;9.088;2023-08-12T10:45:43;30.10;99.90
18868;DHT22;9563;49.240;9.088;2023-08-12T10:48:16;30.30;99.90
18868;DHT22;9563;49.240;9.088;2023-08-12T10:50:45;30.50;99.90
18868;DHT22;9563;49.240;9.088;2023-08-12T10:53:24;30.60;99.90
18868;DHT22;9563;49.240;9.088;2023-08-12T10:55:56;30.40;99.90
18868;DHT22;9563;49.240;9.088;2023-08-12T10:58:26;30.60;99.90
18868;DHT22;9563;49.240;9.088;2023-08-12T11:00:54;30.60;99.90
18868;DHT22;9563;49.240;9.088;2023-08-12T11:03:21;31.00;99.90
18868;DHT22;9563;49.240;9.088;2023-08-12T11:05:47;31.20;99.90
18868;DHT22;9563;49.240;9.088;2023-08-12T11:08:16;31.20;99.90
18868;DHT22;9563;49.240;9.088;2023-08-12T11:10:45;31.50;99.90
18868;DHT22;9563;49.240;9.088;2023-08-12T11:13:14;31.60;99.90
18868;DHT22;9563;49.240;9.088;2023-08-12T11:15:42;31.70;99.90
18868;DHT22;9563;49.240;9.088;2023-08-12T11:18:13;31.30;99.90
18868;DHT22;9563;49.240;9.088;2023-08-12T11:20:41;31.10;99.90
18868;DHT22;9563;49.240;9.088;2023-08-12T11:23:09;31.30;99.90
18868;DHT22;9563;49.240;9.088;2023-08-12T11:25:38;31.30;99.90
18868;DHT22;9563;49.240;9.088;2023-08-12T11:28:07;31.40;99.90
18868;DHT22;9563;49.240;9.088;2023-08-12T11:30:34;30.90;99.90
18868;DHT22;9563;49.240;9.088;2023-08-12T11:33:02;30.50;99.90
18868;DHT22;9563;49.240;9.088;2023-08-12T11:35:29;29.90;99.90
18868;DHT22;9563;49.240;9.088;2023-08-12T11:37:57;29.50;99.90
18868;DHT22;9563;49.240;9.088;2023-08-12T11:40:26;29.10;99.90
18868;DHT22;9563;49.240;9.088;2023-08-12T11:42:53;28.80;99.90
18868;DHT22;9563;49.240;9.088;2023-08-12T11:45:23;28.50;99.90
18868;DHT22;9563;49.240;9.088;2023-08-12T11:47:51;28.20;99.90
18868;DHT22;9563;49.240;9.088;2023-08-12T11:50:20;28.10;99.90
18868;DHT22;9563;49.240;9.088;2023-08-12T11:52:48;28.00;99.90
18868;DHT22;9563;49.240;9.088;2023-08-12T11:55:15;28.00;99.90
18868;DHT22;9563;49.240;9.088;2023-08-12T11:57:43;27.90;99.90
18868;DHT22;9563;49.240;9.088;2023-08-12T12:00:12;27.80;99.90
18868;DHT22;9563;49.240;9.088;2023-08-12T12:02:45;27.80;99.90
18868;DHT22;9563;49.240;9.088;2023-08-12T12:05:13;27.60;99.90
18868;DHT22;9563;49.240;9.088;2023-08-12T12:07:41;27.40;99.90
18868;DHT22;9563;49.240;9.088;2023-08-12T12:10:12;27.10;99.90
18868;DHT22;9563;49.240;9.088;2023-08-12T12:12:39;26.90;99.90
18868;DHT22;9563;49.240;9.088;2023-08-12T12:15:07;26.70;99.90
18868;DHT22;9563;49.240;9.088;2023-08-12T12:17:38;26.60;99.90
18868;DHT22;9563;49.240;9.088;2023-08-12T12:20:08;26.50;99.90
18868;DHT22;9563;49.240;9.088;2023-08-12T12:22:37;26.40;99.90
18868;DHT22;9563;49.240;9.088;2023-08-12T12:25:09;26.30;99.90
18868;DHT22;9563;49.240;9.088;2023-08-12T12:27:37;26.20;99.90
18868;DHT22;9563;49.240;9.088;2023-08-12T12:30:05;26.30;99.90
18868;DHT22;9563;49.240;9.088;2023-08-12T12:32:34;26.30;99.90
18868;DHT22;9563;49.240;9.088;2023-08-12T12:35:00;26.40;99.90
18868;DHT22;9563;49.240;9.088;2023-08-12T12:37:29;26.40;99.90
18868;DHT22;9563;49.240;9.088;2023-08-12T12:39:56;26.30;99.90
18868;DHT22;9563;49.240;9.088;2023-08-12T12:42:23;26.30;99.90
18868;DHT22;9563;49.240;9.088;2023-08-12T12:44:49;26.30;99.90
18868;DHT22;9563;49.240;9.088;2023-08-12T12:47:16;26.20;99.90
18868;DHT22;9563;49.240;9.088;2023-08-12T12:49:45;26.30;99.90
18868;DHT22;9563;49.240;9.088;2023-08-12T12:52:12;26.40;99.90
18868;DHT22;9563;49.240;9.088;2023-08-12T12:54:40;26.80;99.90
18868;DHT22;9563;49.240;9.088;2023-08-12T12:57:07;27.20;99.90
18868;DHT22;9563;49.240;9.088;2023-08-12T12:59:34;27.30;99.90
18868;DHT22;9563;49.240;9.088;2023-08-12T13:02:01;27.60;99.90
18868;DHT22;9563;49.240;9.088;2023-08-12T13:04:28;27.70;99.90
18868;DHT22;9563;49.240;9.088;2023-08-12T13:06:55;27.70;99.90
18868;DHT22;9563;49.240;9.088;2023-08-12T13:09:22;27.50;99.90
18868;DHT22;9563;49.240;9.088;2023-08-12T13:11:50;27.30;99.90
18868;DHT22;9563;49.240;9.088;2023-08-12T13:14:17;27.20;99.90
18868;DHT22;9563;49.240;9.088;2023-08-12T13:16:46;27.10;99.90
18868;DHT22;9563;49.240;9.088;2023-08-12T13:19:13;26.90;99.90
18868;DHT22;9563;49.240;9.088;2023-08-12T13:21:40;26.70;99.90
18868;DHT22;9563;49.240;9.088;2023-08-12T13:24:07;26.60;99.90
18868;DHT22;9563;49.240;9.088;2023-08-12T13:26:33;26.60;99.90
18868;DHT22;9563;49.240;9.088;2023-08-12T13:29:02;26.40;99.90
18868;DHT22;9563;49.240;9.088;2023-08-12T13:31:29;26.40;99.90
18868;DHT22;9563;49.240;9.088;2023-08-12T13:33:56;26.20;99.90
18868;DHT22;9563;49.240;9.088;2023-08-12T13:36:23;26.10;99.90
18868;DHT22;9563;49.240;9.088;2023-08-12T13:38:49;26.00;99.90
18868;DHT22;9563;49.240;9.088;2023-08-12T13:41:16;26.10;99.90
18868;DHT22;9563;49.240;9.088;2023-08-12T13:43:43;26.10;99.90
18868;DHT22;9563;49.240;9.088;2023-08-12T13:46:11;26.20;99.90
18868;DHT22;9563;49.240;9.088;2023-08-12T13:48:38;26.30;99.90
18868;DHT22;9563;49.240;9.088;2023-08-12T13:51:06;26.40;99.90
18868;DHT22;9563;49.240;9.088;2023-08-12T13:53:33;26.50;99.90
18868;DHT22;9563;49.240;9.088;2023-08-12T13:56:00;26.50;99.90
18868;DHT22;9563;49.240;9.088;2023-08-12T13:58:27;26.60;99.90
18868;DHT22;9563;49.240;9.088;2023-08-12T14:00:53;26.60;99.90
18868;DHT22;9563;49.240;9.088;2023-08-12T14:03:22;26.70;99.90
18868;DHT22;9563;49.240;9.088;2023-08-12T14:05:49;26.70;99.90
18868;DHT22;9563;49.240;9.088;2023-08-12T14:08:15;26.90;99.90
18868;DHT22;9563;49.240;9.088;2023-08-12T14:10:45;27.00;99.90
18868;DHT22;9563;49.240;9.088;2023-08-12T14:13:12;26.90;99.90
18868;DHT22;9563;49.240;9.088;2023-08-12T14:15:40;27.10;99.90
18868;DHT22;9563;49.240;9.088;2023-08-12T14:18:07;27.20;99.90
18868;DHT22;9563;49.240;9.088;2023-08-12T14:20:35;27.30;99.90
18868;DHT22;9563;49.240;9.088;2023-08-12T14:23:02;27.30;99.90
18868;DHT22;9563;49.240;9.088;2023-08-12T14:25:29;27.20;99.90
18868;DHT22;9563;49.240;9.088;2023-08-12T14:27:56;27.00;99.90
18868;DHT22;9563;49.240;9.088;2023-08-12T14:30:24;26.90;99.90
18868;DHT22;9563;49.240;9.088;2023-08-12T14:32:51;26.90;99.90
18868;DHT22;9563;49.240;9.088;2023-08-12T14:35:18;26.90;99.90
18868;DHT22;9563;49.240;9.088;2023-08-12T14:37:46;26.70;99.90
18868;DHT22;9563;49.240;9.088;2023-08-12T14:40:13;26.70;99.90
18868;DHT22;9563;49.240;9.088;2023-08-12T14:42:40;26.70;99.90
18868;DHT22;9563;49.240;9.088;2023-08-12T14:45:08;26.70;99.90
18868;DHT22;9563;49.240;9.088;2023-08-12T14:47:35;26.70;99.90
18868;DHT22;9563;49.240;9.088;2023-08-12T14:50:02;26.70;99.90
18868;DHT22;9563;49.240;9.088;2023-08-12T14:52:29;26.60;99.90
18868;DHT22;9563;49.240;9.088;2023-08-12T14:54:57;26.50;99.90
18868;DHT22;9563;49.240;9.088;2023-08-12T14:57:24;26.40;99.90
18868;DHT22;9563;49.240;9.088;2023-08-12T14:59:51;26.20;99.90
18868;DHT22;9563;49.240;9.088;2023-08-12T15:02:21;26.00;99.90
18868;DHT22;9563;49.240;9.088;2023-08-12T15:04:48;25.90;99.90
18868;DHT22;9563;49.240;9.088;2023-08-12T15:07:15;25.80;99.90
18868;DHT22;9563;49.240;9.088;2023-08-12T15:09:44;25.60;99.90
18868;DHT22;9563;49.240;9.088;2023-08-12T15:12:12;25.70;99.90
18868;DHT22;9563;49.240;9.088;2023-08-12T15:14:39;25.50;99.90
18868;DHT22;9563;49.240;9.088;2023-08-12T15:17:06;25.50;99.90
18868;DHT22;9563;49.240;9.088;2023-08-12T15:19:32;25.30;99.90
18868;DHT22;9563;49.240;9.088;2023-08-12T15:21:59;25.20;99.90
18868;DHT22;9563;49.240;9.088;2023-08-12T15:24:26;25.10;99.90
18868;DHT22;9563;49.240;9.088;2023-08-12T15:26:53;24.90;99.90
18868;DHT22;9563;49.240;9.088;2023-08-12T15:29:21;24.80;99.90
18868;DHT22;9563;49.240;9.088;2023-08-12T15:31:48;24.60;99.90
18868;DHT22;9563;49.240;9.088;2023-08-12T15:34:15;24.40;99.90
18868;DHT22;9563;49.240;9.088;2023-08-12T15:36:43;24.30;99.90
18868;DHT22;9563;49.240;9.088;2023-08-12T15:39:11;24.10;99.90
18868;DHT22;9563;49.240;9.088;2023-08-12T15:41:40;23.90;99.90
18868;DHT22;9563;49.240;9.088;2023-08-12T15:44:07;23.80;99.90
18868;DHT22;9563;49.240;9.088;2023-08-12T15:46:36;23.70;99.90
18868;DHT22;9563;49.240;9.088;2023-08-12T15:49:03;23.60;99.90
18868;DHT22;9563;49.240;9.088;2023-08-12T15:51:32;23.50;99.90
18868;DHT22;9563;49.240;9.088;2023-08-12T15:53:59;23.40;99.90
18868;DHT22;9563;49.240;9.088;2023-08-12T15:56:27;23.30;99.90
18868;DHT22;9563;49.240;9.088;2023-08-12T15:58:54;23.20;99.90
18868;DHT22;9563;49.240;9.088;2023-08-12T16:01:21;23.10;99.90
18868;DHT22;9563;49.240;9.088;2023-08-12T16:03:49;23.00;99.90
18868;DHT22;9563;49.240;9.088;2023-08-12T16:06:16;23.00;99.90
18868;DHT22;9563;49.240;9.088;2023-08-12T16:08:43;22.90;99.90
18868;DHT22;9563;49.240;9.088;2023-08-12T16:11:10;22.90;99.90
18868;DHT22;9563;49.240;9.088;2023-08-12T16:13:37;22.80;99.90
18868;DHT22;9563;49.240;9.088;2023-08-12T16:16:04;22.80;99.90
18868;DHT22;9563;49.240;9.088;2023-08-12T16:18:30;22.70;99.90
18868;DHT22;9563;49.240;9.088;2023-08-12T16:20:59;22.70;99.90
18868;DHT22;9563;49.240;9.088;2023-08-12T16:23:26;22.70;99.90
18868;DHT22;9563;49.240;9.088;2023-08-12T16:25:57;22.70;99.90
18868;DHT22;9563;49.240;9.088;2023-08-12T16:28:23;22.70;99.90
18868;DHT22;9563;49.240;9.088;2023-08-12T16:30:51;22.60;99.90
18868;DHT22;9563;49.240;9.088;2023-08-12T16:33:18;22.70;99.90
18868;DHT22;9563;49.240;9.088;2023-08-12T16:35:45;22.70;99.90
18868;DHT22;9563;49.240;9.088;2023-08-12T16:38:14;22.70;99.90
18868;DHT22;9563;49.240;9.088;2023-08-12T16:40:41;22.70;99.90
18868;DHT22;9563;49.240;9.088;2023-08-12T16:43:08;22.60;99.90
18868;DHT22;9563;49.240;9.088;2023-08-12T16:45:35;22.60;99.90
18868;DHT22;9563;49.240;9.088;2023-08-12T16:48:02;22.60;99.90
18868;DHT22;9563;49.240;9.088;2023-08-12T16:50:29;22.60;99.90
18868;DHT22;9563;49.240;9.088;2023-08-12T16:52:56;22.50;99.90
18868;DHT22;9563;49.240;9.088;2023-08-12T16:55:24;22.60;99.90
18868;DHT22;9563;49.240;9.088;2023-08-12T16:57:51;22.50;99.90
18868;DHT22;9563;49.240;9.088;2023-08-12T17:00:18;22.50;99.90
18868;DHT22;9563;49.240;9.088;2023-08-12T17:02:44;22.60;99.90
18868;DHT22;9563;49.240;9.088;2023-08-12T17:05:11;22.50;99.90
18868;DHT22;9563;49.240;9.088;2023-08-12T17:07:38;22.50;99.90
18868;DHT22;9563;49.240;9.088;2023-08-12T17:10:06;22.60;99.90
18868;DHT22;9563;49.240;9.088;2023-08-12T17:12:34;22.60;99.90
18868;DHT22;9563;49.240;9.088;2023-08-12T17:15:01;22.70;99.90
18868;DHT22;9563;49.240;9.088;2023-08-12T17:17:27;22.70;99.90
18868;DHT22;9563;49.240;9.088;2023-08-12T17:19:54;22.80;99.90
18868;DHT22;9563;49.240;9.088;2023-08-12T17:22:21;22.80;99.90
18868;DHT22;9563;49.240;9.088;2023-08-12T17:24:48;22.90;99.90
18868;DHT22;9563;49.240;9.088;2023-08-12T17:27:15;22.90;99.90
18868;DHT22;9563;49.240;9.088;2023-08-12T17:29:43;23.00;99.90
18868;DHT22;9563;49.240;9.088;2023-08-12T17:32:10;23.00;99.90
18868;DHT22;9563;49.240;9.088;2023-08-12T17:34:37;23.00;99.90
18868;DHT22;9563;49.240;9.088;2023-08-12T17:37:04;23.00;99.90
18868;DHT22;9563;49.240;9.088;2023-08-12T17:39:30;23.00;99.90
18868;DHT22;9563;49.240;9.088;2023-08-12T17:41:57;22.90;99.90
18868;DHT22;9563;49.240;9.088;2023-08-12T17:44:24;22.90;99.90
18868;DHT22;9563;49.240;9.088;2023-08-12T17:46:53;22.90;99.90
18868;DHT22;9563;49.240;9.088;2023-08-12T17:49:19;22.90;99.90
18868;DHT22;9563;49.240;9.088;2023-08-12T17:51:46;22.80;99.90
18868;DHT22;9563;49.240;9.088;2023-08-12T17:54:13;22.80;99.90
18868;DHT22;9563;49.240;9.088;2023-08-12T17:56:40;22.70;99.90
18868;DHT22;9563;49.240;9.088;2023-08-12T17:59:07;22.70;99.90
18868;DHT22;9563;49.240;9.088;2023-08-12T18:01:33;22.60;99.90
18868;DHT22;9563;49.240;9.088;2023-08-12T18:04:02;22.50;99.90
18868;DHT22;9563;49.240;9.088;2023-08-12T18:06:28;22.40;99.90
18868;DHT22;9563;49.240;9.088;2023-08-12T18:08:55;22.40;99.90
18868;DHT22;9563;49.240;9.088;2023-08-12T18:11:22;22.30;99.90
18868;DHT22;9563;49.240;9.088;2023-08-12T18:13:49;22.20;99.90
18868;DHT22;9563;49.240;9.088;2023-08-12T18:16:16;22.20;99.90
18868;DHT22;9563;49.240;9.088;2023-08-12T18:18:43;22.10;99.90
18868;DHT22;9563;49.240;9.088;2023-08-12T18:21:11;22.00;99.90
18868;DHT22;9563;49.240;9.088;2023-08-12T18:23:38;22.00;99.90
18868;DHT22;9563;49.240;9.088;2023-08-12T18:26:04;22.00;99.90
18868;DHT22;9563;49.240;9.088;2023-08-12T18:28:31;21.90;99.90
18868;DHT22;9563;49.240;9.088;2023-08-12T18:30:58;21.90;99.90
18868;DHT22;9563;49.240;9.088;2023-08-12T18:33:25;21.80;99.90
18868;DHT22;9563;49.240;9.088;2023-08-12T18:35:52;21.80;99.90
18868;DHT22;9563;49.240;9.088;2023-08-12T18:38:21;21.70;99.90
18868;DHT22;9563;49.240;9.088;2023-08-12T18:40:47;21.70;99.90
18868;DHT22;9563;49.240;9.088;2023-08-12T18:43:14;21.60;99.90
18868;DHT22;9563;49.240;9.088;2023-08-12T18:45:41;21.60;99.90
18868;DHT22;9563;49.240;9.088;2023-08-12T18:48:08;21.60;99.90
18868;DHT22;9563;49.240;9.088;2023-08-12T18:50:35;21.50;99.90
18868;DHT22;9563;49.240;9.088;2023-08-12T18:53:02;21.50;99.90
18868;DHT22;9563;49.240;9.088;2023-08-12T18:55:30;21.50;99.90
18868;DHT22;9563;49.240;9.088;2023-08-12T18:57:57;21.50;99.90
18868;DHT22;9563;49.240;9.088;2023-08-12T19:00:24;21.40;99.90
18868;DHT22;9563;49.240;9.088;2023-08-12T19:02:51;21.40;99.90
18868;DHT22;9563;49.240;9.088;2023-08-12T19:05:17;21.30;99.90
18868;DHT22;9563;49.240;9.088;2023-08-12T19:07:44;21.30;99.90
18868;DHT22;9563;49.240;9.088;2023-08-12T19:10:11;21.20;99.90
18868;DHT22;9563;49.240;9.088;2023-08-12T19:12:39;21.20;99.90
18868;DHT22;9563;49.240;9.088;2023-08-12T19:15:07;21.20;99.90
18868;DHT22;9563;49.240;9.088;2023-08-12T19:17:34;21.20;99.90
18868;DHT22;9563;49.240;9.088;2023-08-12T19:20:01;21.20;99.90
18868;DHT22;9563;49.240;9.088;2023-08-12T19:22:28;21.20;99.90
18868;DHT22;9563;49.240;9.088;2023-08-12T19:24:55;21.20;99.90
18868;DHT22;9563;49.240;9.088;2023-08-12T19:27:22;21.20;99.90
18868;DHT22;9563;49.240;9.088;2023-08-12T19:29:50;21.20;99.90
18868;DHT22;9563;49.240;9.088;2023-08-12T19:32:17;21.20;99.90
18868;DHT22;9563;49.240;9.088;2023-08-12T19:34:44;21.20;99.90
18868;DHT22;9563;49.240;9.088;2023-08-12T19:37:11;21.20;99.90
18868;DHT22;9563;49.240;9.088;2023-08-12T19:39:37;21.20;99.90
18868;DHT22;9563;49.240;9.088;2023-08-12T19:42:04;21.20;99.90
18868;DHT22;9563;49.240;9.088;2023-08-12T19:44:31;21.20;99.90
18868;DHT22;9563;49.240;9.088;2023-08-12T19:47:00;21.20;99.90